Thunder radar more information blitzortung!


Radar de pluja more information rain snow radar


Visita la nostra xarxa de llocs de meteo:

Template documentation
and downloads

And another site



No particular awareness of the weather is required.    There are no Weather-warnings

Pagina Historial Weather Underground text

Diari Resum Novembre 2, 2017 Unitats:  Mètric    Imperial   Tant
« Previous Dia
SegĂźent Dia »
Diari Setmana Mensual Anual Personalitzada
  Maxima: Minima: Media:
Temperatura: 21.3 °C 11.3 °C 16.8 °C
Punt de rosada: 15.6 °C 9.7 °C 12.8 °C
Humitat: 91 % 65 % 78 %
Wind Speed: 24.1 km/h 0.0 km/h 5.5 km/h
RĂ fegues de vent: 24.1 km/h - -
Vent:- - SSW
Pression baro: 1022.9 hPa 1016.8 hPa -
Precipitacions: 0.0 mm    
Historical Graphs
 
 
Dades de taula per Novembre 2, 2017
Temps Temperatura Punt de rosada Pression baro Vent Wind Speed RĂ fegues de vent Humitat Rainfall Rate (Hourly)
00:03 13.5 °C 10.8 °C 1021.9 hPa WSW 2.3 km/h 2.3 km/h 84 % 0.0 mm
00:05 12.2 °C 10.6 °C 1020.9 hPa WNW 3.2 km/h 3.2 km/h 90 % 0.0 mm
00:08 13.5 °C 10.8 °C 1022.9 hPa Calm     84 % 0.0 mm
00:15 11.9 °C 10.3 °C 1020.9 hPa Calm   3.2 km/h 90 % 0.0 mm
00:25 11.7 °C 9.9 °C 1020.9 hPa SE 1.6 km/h 3.2 km/h 89 % 0.0 mm
00:35 11.5 °C 9.7 °C 1020.9 hPa Calm   1.6 km/h 89 % 0.0 mm
00:45 11.5 °C 9.7 °C 1020.9 hPa Calm     89 % 0.0 mm
00:55 11.4 °C 9.7 °C 1020.9 hPa Calm     89 % 0.0 mm
01:05 11.4 °C 9.7 °C 1020.9 hPa Calm     89 % 0.0 mm
01:15 11.3 °C 9.7 °C 1020.9 hPa Calm     90 % 0.0 mm
01:25 11.4 °C 9.8 °C 1021.9 hPa Calm     90 % 0.0 mm
01:35 11.4 °C 9.8 °C 1021.9 hPa Calm     90 % 0.0 mm
01:45 11.5 °C 9.9 °C 1020.9 hPa Calm     90 % 0.0 mm
01:55 11.7 °C 10.3 °C 1020.9 hPa Calm   1.6 km/h 91 % 0.0 mm
02:05 11.8 °C 10.4 °C 1020.9 hPa North 1.6 km/h 3.2 km/h 91 % 0.0 mm
02:15 11.9 °C 10.5 °C 1021.9 hPa NNE 1.6 km/h 3.2 km/h 91 % 0.0 mm
02:25 11.8 °C 10.2 °C 1021.9 hPa NE 1.6 km/h 3.2 km/h 90 % 0.0 mm
02:35 12.0 °C 10.4 °C 1021.9 hPa ENE 1.6 km/h 3.2 km/h 90 % 0.0 mm
02:45 12.0 °C 10.4 °C 1021.9 hPa Calm   1.6 km/h 90 % 0.0 mm
02:55 12.4 °C 10.8 °C 1021.9 hPa NE 1.6 km/h 3.2 km/h 90 % 0.0 mm
03:05 12.9 °C 11.1 °C 1021.9 hPa ENE 3.2 km/h 3.2 km/h 89 % 0.0 mm
03:15 13.0 °C 11.1 °C 1021.9 hPa East 3.2 km/h 3.2 km/h 88 % 0.0 mm
03:25 13.0 °C 10.9 °C 1021.9 hPa East 1.6 km/h 3.2 km/h 87 % 0.0 mm
03:35 13.5 °C 11.6 °C 1021.9 hPa East 1.6 km/h 3.2 km/h 88 % 0.0 mm
03:45 13.9 °C 11.6 °C 1021.9 hPa Calm   4.8 km/h 86 % 0.0 mm
03:55 14.1 °C 11.4 °C 1021.9 hPa ESE 4.8 km/h 6.4 km/h 84 % 0.0 mm
04:05 14.3 °C 11.6 °C 1021.9 hPa ESE 3.2 km/h 4.8 km/h 84 % 0.0 mm
04:15 14.6 °C 11.9 °C 1021.9 hPa ESE 1.6 km/h 4.8 km/h 84 % 0.0 mm
10:24 14.7 °C 11.8 °C 1020.9 hPa ESE 5.3 km/h 5.3 km/h 83 % 0.0 mm
10:25 14.8 °C 11.9 °C 1020.9 hPa ESE 5.3 km/h 5.3 km/h 83 % 0.0 mm
10:30 15.3 °C 12.4 °C 1020.9 hPa East 1.6 km/h 4.8 km/h 83 % 0.0 mm
10:35 15.3 °C 12.2 °C 1020.9 hPa East 3.2 km/h 3.2 km/h 82 % 0.0 mm
10:40 15.6 °C 12.5 °C 1021.9 hPa ESE 1.6 km/h 3.2 km/h 82 % 0.0 mm
10:45 15.9 °C 12.7 °C 1021.9 hPa SE 1.6 km/h 3.2 km/h 81 % 0.0 mm
10:50 15.9 °C 12.7 °C 1021.9 hPa ESE 3.7 km/h 3.7 km/h 81 % 0.0 mm
10:55 16.0 °C 12.6 °C 1021.9 hPa ENE 3.2 km/h 3.2 km/h 80 % 0.0 mm
11:00 16.0 °C 12.6 °C 1021.9 hPa NNE 2.3 km/h 2.3 km/h 80 % 0.0 mm
11:05 16.1 °C 12.7 °C 1021.9 hPa NE 3.7 km/h 3.7 km/h 80 % 0.0 mm
11:10 16.3 °C 12.8 °C 1021.9 hPa ENE 3.7 km/h 3.7 km/h 80 % 0.0 mm
11:15 16.7 °C 13.2 °C 1021.9 hPa ENE 5.6 km/h 5.6 km/h 80 % 0.0 mm
11:20 17.1 °C 13.2 °C 1021.9 hPa NNE 4.7 km/h 4.7 km/h 78 % 0.0 mm
11:25 17.1 °C 13.2 °C 1021.9 hPa NNE 4.2 km/h 4.2 km/h 78 % 0.0 mm
11:30 17.3 °C 13.2 °C 1021.9 hPa NNE 5.6 km/h 5.6 km/h 77 % 0.0 mm
11:35 16.9 °C 13.1 °C 1021.9 hPa NE 5.6 km/h 5.6 km/h 78 % 0.0 mm
11:40 17.3 °C 13.2 °C 1021.9 hPa ENE 3.7 km/h 3.7 km/h 77 % 0.0 mm
11:45 17.8 °C 13.7 °C 1021.9 hPa ENE 4.7 km/h 4.7 km/h 77 % 0.0 mm
11:50 18.1 °C 14.0 °C 1021.9 hPa NNE 7.4 km/h 7.4 km/h 77 % 0.0 mm
11:55 18.1 °C 13.8 °C 1021.9 hPa NNE 5.6 km/h 5.6 km/h 76 % 0.0 mm
12:05 18.5 °C 14.0 °C 1021.9 hPa NNE 4.7 km/h 4.7 km/h 75 % 0.0 mm
12:10 18.6 °C 14.1 °C 1020.9 hPa East 4.7 km/h   75 % 0.0 mm
12:15 19.1 °C 14.2 °C 1020.9 hPa South 4.2 km/h 4.2 km/h 73 % 0.0 mm
12:20 19.1 °C 14.2 °C 1020.9 hPa West 3.7 km/h 3.7 km/h 73 % 0.0 mm
12:25 19.1 °C 13.9 °C 1019.9 hPa ENE 9.3 km/h 9.3 km/h 72 % 0.0 mm
12:30 19.3 °C 14.3 °C 1019.9 hPa ENE 3.7 km/h 3.7 km/h 73 % 0.0 mm
12:35 19.5 °C 14.6 °C 1019.9 hPa WSW 3.2 km/h 3.2 km/h 73 % 0.0 mm
12:40 20.1 °C 15.1 °C 1019.9 hPa SSW 10.3 km/h 10.3 km/h 73 % 0.0 mm
12:45 20.6 °C 15.1 °C 1019.9 hPa SSW 3.2 km/h 11.3 km/h 71 % 0.0 mm
12:50 20.8 °C 15.6 °C 1019.9 hPa SSW 3.2 km/h 9.7 km/h 72 % 0.0 mm
12:55 20.9 °C 15.4 °C 1019.9 hPa SW 8.0 km/h 16.1 km/h 71 % 0.0 mm
13:00 21.1 °C 15.1 °C 1019.9 hPa SW 3.2 km/h 9.7 km/h 69 % 0.0 mm
13:05 21.1 °C 14.9 °C 1019.9 hPa SSW 4.8 km/h 9.7 km/h 68 % 0.0 mm
13:10 21.0 °C 15.1 °C 1019.9 hPa SW 4.8 km/h 11.3 km/h 69 % 0.0 mm
13:15 21.3 °C 15.1 °C 1019.9 hPa SW 3.2 km/h 8.0 km/h 68 % 0.0 mm
13:20 21.1 °C 14.7 °C 1019.9 hPa SSW 11.1 km/h 11.1 km/h 67 % 0.0 mm
13:25 21.2 °C 14.8 °C 1019.9 hPa SSW 8.0 km/h 16.1 km/h 67 % 0.0 mm
13:30 20.8 °C 14.4 °C 1019.9 hPa SSW 9.7 km/h 14.5 km/h 67 % 0.0 mm
13:35 20.8 °C 14.2 °C 1019.9 hPa SW 9.7 km/h 16.1 km/h 66 % 0.0 mm
13:40 21.1 °C 14.5 °C 1018.8 hPa SW 3.2 km/h 16.1 km/h 66 % 0.0 mm
13:45 20.9 °C 14.3 °C 1018.8 hPa SSW 4.8 km/h 16.1 km/h 66 % 0.0 mm
13:50 20.7 °C 13.9 °C 1018.8 hPa SSW 8.0 km/h 16.1 km/h 65 % 0.0 mm
13:55 20.6 °C 13.8 °C 1018.8 hPa SW 11.3 km/h 17.7 km/h 65 % 0.0 mm
14:00 20.5 °C 13.9 °C 1018.8 hPa WSW 16.7 km/h 16.7 km/h 66 % 0.0 mm
14:05 20.6 °C 14.0 °C 1018.8 hPa SW 4.8 km/h 9.7 km/h 66 % 0.0 mm
14:10 20.4 °C 13.8 °C 1018.8 hPa SW 8.0 km/h 16.1 km/h 66 % 0.0 mm
14:15 20.3 °C 13.7 °C 1018.8 hPa SSW 8.0 km/h 19.3 km/h 66 % 0.0 mm
14:20 20.4 °C 14.1 °C 1018.8 hPa SW 8.0 km/h 14.5 km/h 67 % 0.0 mm
14:25 20.3 °C 13.9 °C 1018.8 hPa SW 4.8 km/h 14.5 km/h 67 % 0.0 mm
14:30 20.4 °C 14.1 °C 1018.8 hPa SW 11.1 km/h 11.1 km/h 67 % 0.0 mm
14:35 20.4 °C 13.8 °C 1018.8 hPa SW 14.8 km/h 14.8 km/h 66 % 0.0 mm
14:40 20.4 °C 13.8 °C 1018.8 hPa SSW 14.8 km/h 14.8 km/h 66 % 0.0 mm
14:45 20.3 °C 13.7 °C 1018.8 hPa SW 13.0 km/h 13.0 km/h 66 % 0.0 mm
14:50 20.4 °C 13.8 °C 1018.8 hPa WSW 11.1 km/h 11.1 km/h 66 % 0.0 mm
14:55 20.4 °C 14.1 °C 1018.8 hPa West 9.0 km/h 9.0 km/h 67 % 0.0 mm
15:00 20.3 °C 13.7 °C 1018.8 hPa SSW 14.8 km/h 14.8 km/h 66 % 0.0 mm
15:05 20.4 °C 13.8 °C 1018.8 hPa SSW 24.1 km/h 24.1 km/h 66 % 0.0 mm
15:10 20.6 °C 14.0 °C 1017.8 hPa WSW 9.7 km/h 10.0 km/h 66 % 0.0 mm
15:15 20.7 °C 14.1 °C 1017.8 hPa SSW 9.3 km/h 9.3 km/h 66 % 0.0 mm
15:20 20.7 °C 14.1 °C 1017.8 hPa SW 9.3 km/h 9.3 km/h 66 % 0.0 mm
15:25 20.7 °C 14.1 °C 1017.8 hPa South 13.0 km/h 13.0 km/h 66 % 0.0 mm
15:30 20.4 °C 13.6 °C 1017.8 hPa WSW 20.4 km/h 20.4 km/h 65 % 0.0 mm
15:35 20.4 °C 13.8 °C 1017.8 hPa SSW 13.0 km/h 13.0 km/h 66 % 0.0 mm
15:40 20.4 °C 13.8 °C 1017.8 hPa SSE 18.5 km/h 18.5 km/h 66 % 0.0 mm
15:45 20.3 °C 13.7 °C 1017.8 hPa SW 9.3 km/h 9.3 km/h 66 % 0.0 mm
15:50 20.3 °C 13.7 °C 1017.8 hPa WSW 13.0 km/h 13.0 km/h 66 % 0.0 mm
15:55 20.2 °C 13.7 °C 1017.8 hPa South 14.8 km/h 14.8 km/h 66 % 0.0 mm
16:00 20.1 °C 13.6 °C 1017.8 hPa West 14.8 km/h 14.8 km/h 66 % 0.0 mm
16:05 20.0 °C 13.7 °C 1017.8 hPa WSW 14.8 km/h 14.8 km/h 67 % 0.0 mm
16:10 20.0 °C 13.7 °C 1017.8 hPa SSW 7.4 km/h 7.4 km/h 67 % 0.0 mm
16:15 20.1 °C 13.8 °C 1017.8 hPa SW 13.0 km/h 13.0 km/h 67 % 0.0 mm
16:20 19.8 °C 13.7 °C 1017.8 hPa SW 13.0 km/h 13.0 km/h 68 % 0.0 mm
16:25 19.8 °C 13.9 °C 1017.8 hPa SW 18.5 km/h 18.5 km/h 69 % 0.0 mm
16:30 19.6 °C 13.8 °C 1017.8 hPa South 11.1 km/h 11.1 km/h 69 % 0.0 mm
16:35 19.6 °C 14.0 °C 1017.8 hPa SW 11.1 km/h 11.1 km/h 70 % 0.0 mm
16:40 19.5 °C 13.9 °C 1016.8 hPa SSW 9.3 km/h 9.3 km/h 70 % 0.0 mm
16:45 19.3 °C 13.9 °C 1016.8 hPa West 11.1 km/h 11.1 km/h 71 % 0.0 mm
16:50 19.2 °C 13.8 °C 1016.8 hPa SW 9.3 km/h 9.3 km/h 71 % 0.0 mm
16:55 19.1 °C 13.9 °C 1017.8 hPa SW 11.1 km/h 11.1 km/h 72 % 0.0 mm
17:00 19.0 °C 13.8 °C 1017.8 hPa WSW 9.3 km/h 9.3 km/h 72 % 0.0 mm
17:05 18.8 °C 13.8 °C 1017.8 hPa SW 7.4 km/h 7.4 km/h 73 % 0.0 mm
17:10 18.7 °C 13.9 °C 1017.8 hPa WSW 11.4 km/h 11.4 km/h 74 % 0.0 mm
17:15 18.6 °C 13.9 °C 1017.8 hPa SW 7.4 km/h 7.4 km/h 74 % 0.0 mm
17:20 18.5 °C 14.0 °C 1017.8 hPa WSW 7.4 km/h 7.4 km/h 75 % 0.0 mm
17:25 18.4 °C 13.9 °C 1017.8 hPa SW 7.4 km/h 7.4 km/h 75 % 0.0 mm
17:30 18.3 °C 13.8 °C 1017.8 hPa SW 9.5 km/h 9.5 km/h 75 % 0.0 mm
17:35 18.3 °C 13.8 °C 1017.8 hPa WSW 7.9 km/h 7.9 km/h 75 % 0.0 mm
17:40 18.2 °C 13.9 °C 1017.8 hPa SSW 7.4 km/h 7.4 km/h 76 % 0.0 mm
17:45 18.1 °C 13.8 °C 1017.8 hPa SSW 9.3 km/h 9.3 km/h 76 % 0.0 mm
17:50 18.0 °C 13.7 °C 1017.8 hPa SW 8.7 km/h 8.7 km/h 76 % 0.0 mm
17:55 17.9 °C 13.8 °C 1017.8 hPa SW 9.3 km/h 9.3 km/h 77 % 0.0 mm
18:00 17.8 °C 13.7 °C 1017.8 hPa South 7.4 km/h 7.4 km/h 77 % 0.0 mm
18:05 17.7 °C 13.6 °C 1017.8 hPa SSW 9.3 km/h 9.3 km/h 77 % 0.0 mm
18:10 17.7 °C 13.6 °C 1017.8 hPa WSW 7.4 km/h 7.4 km/h 77 % 0.0 mm
18:15 17.6 °C 13.7 °C 1017.8 hPa SW 5.6 km/h 5.6 km/h 78 % 0.0 mm
18:20 17.5 °C 13.6 °C 1017.8 hPa SW 5.6 km/h 5.6 km/h 78 % 0.0 mm
18:25 17.4 °C 13.5 °C 1017.8 hPa SW 5.6 km/h 5.6 km/h 78 % 0.0 mm
18:30 17.4 °C 13.5 °C 1017.8 hPa WSW 5.6 km/h 5.6 km/h 78 % 0.0 mm
18:35 17.3 °C 13.4 °C 1017.8 hPa SSW 7.4 km/h 7.4 km/h 78 % 0.0 mm
18:40 17.3 °C 13.6 °C 1017.8 hPa SW 7.4 km/h 7.4 km/h 79 % 0.0 mm
18:45 17.2 °C 13.5 °C 1017.8 hPa WSW 5.6 km/h 5.6 km/h 79 % 0.0 mm
18:50 17.1 °C 13.4 °C 1017.8 hPa WSW 3.7 km/h 3.7 km/h 79 % 0.0 mm
18:55 17.1 °C 13.4 °C 1017.8 hPa WNW 3.7 km/h 3.7 km/h 79 % 0.0 mm
19:00 17.0 °C 13.5 °C 1017.8 hPa SW 3.7 km/h 3.7 km/h 80 % 0.0 mm
19:05 16.9 °C 13.6 °C 1017.8 hPa SSW 3.9 km/h 3.9 km/h 81 % 0.0 mm
19:10 16.8 °C 13.5 °C 1017.8 hPa SW 5.3 km/h 5.3 km/h 81 % 0.0 mm
19:15 16.7 °C 13.4 °C 1017.8 hPa WSW 6.1 km/h 6.1 km/h 81 % 0.0 mm
19:20 16.6 °C 13.3 °C 1017.8 hPa SW 6.4 km/h 6.4 km/h 81 % 0.0 mm
19:25 16.6 °C 13.3 °C 1018.8 hPa SW 5.6 km/h 5.6 km/h 81 % 0.0 mm
19:30 16.5 °C 13.2 °C 1018.8 hPa SSW 5.3 km/h 5.3 km/h 81 % 0.0 mm
19:35 16.5 °C 13.2 °C 1018.8 hPa SW 5.3 km/h 5.3 km/h 81 % 0.0 mm
19:40 16.4 °C 13.1 °C 1018.8 hPa SW 5.8 km/h 5.8 km/h 81 % 0.0 mm
19:45 16.5 °C 13.2 °C 1018.8 hPa SW 5.6 km/h 5.6 km/h 81 % 0.0 mm
19:50 16.4 °C 13.1 °C 1018.8 hPa WSW 4.2 km/h 4.2 km/h 81 % 0.0 mm
19:55 16.3 °C 13.1 °C 1018.8 hPa SW 3.7 km/h 3.7 km/h 81 % 0.0 mm
20:00 16.3 °C 13.1 °C 1018.8 hPa West 3.7 km/h 3.7 km/h 81 % 0.0 mm
20:05 16.2 °C 12.9 °C 1018.8 hPa West 2.6 km/h 2.6 km/h 81 % 0.0 mm
20:10 16.2 °C 13.1 °C 1017.8 hPa West 3.7 km/h 3.7 km/h 82 % 0.0 mm
20:15 16.2 °C 12.9 °C 1017.8 hPa West 3.7 km/h 3.7 km/h 81 % 0.0 mm
20:20 16.2 °C 13.1 °C 1017.8 hPa West 1.9 km/h 1.9 km/h 82 % 0.0 mm
20:25 16.1 °C 13.0 °C 1017.8 hPa SW 2.6 km/h 2.6 km/h 82 % 0.0 mm
20:30 16.0 °C 12.9 °C 1017.8 hPa West 3.7 km/h 3.7 km/h 82 % 0.0 mm
20:35 15.9 °C 12.8 °C 1017.8 hPa WSW 3.7 km/h 3.7 km/h 82 % 0.0 mm
20:40 15.8 °C 12.7 °C 1018.8 hPa WSW 3.2 km/h 3.2 km/h 82 % 0.0 mm
20:45 15.7 °C 12.6 °C 1018.8 hPa West 3.7 km/h 3.7 km/h 82 % 0.0 mm
20:50 15.7 °C 12.6 °C 1018.8 hPa SW 3.7 km/h 3.7 km/h 82 % 0.0 mm
20:55 15.6 °C 12.6 °C 1018.8 hPa WSW 2.3 km/h 2.3 km/h 82 % 0.0 mm
21:00 15.6 °C 12.6 °C 1018.8 hPa WSW 1.9 km/h 2.3 km/h 82 % 0.0 mm
21:05 15.5 °C 12.4 °C 1018.8 hPa West 4.2 km/h 4.2 km/h 82 % 0.0 mm
21:10 15.4 °C 12.3 °C 1018.8 hPa SW 3.7 km/h 3.7 km/h 82 % 0.0 mm
21:15 15.3 °C 12.4 °C 1018.8 hPa WSW 3.7 km/h 3.7 km/h 83 % 0.0 mm
21:20 15.3 °C 12.4 °C 1018.8 hPa West 3.7 km/h 3.7 km/h 83 % 0.0 mm
21:25 15.3 °C 12.4 °C 1018.8 hPa West 1.9 km/h   83 % 0.0 mm
21:30 15.3 °C 12.4 °C 1018.8 hPa West 1.9 km/h 1.9 km/h 83 % 0.0 mm
21:35 15.2 °C 12.3 °C 1018.8 hPa SW 2.6 km/h 2.6 km/h 83 % 0.0 mm
21:40 15.1 °C 12.2 °C 1018.8 hPa Calm     83 % 0.0 mm
21:45 15.0 °C 12.1 °C 1018.8 hPa SW 1.9 km/h   83 % 0.0 mm
21:50 14.9 °C 12.1 °C 1018.8 hPa SW 3.2 km/h 3.2 km/h 83 % 0.0 mm
21:55 14.8 °C 11.9 °C 1017.8 hPa SW 3.7 km/h 3.7 km/h 83 % 0.0 mm
22:00 14.7 °C 11.8 °C 1017.8 hPa SW 3.5 km/h 3.5 km/h 83 % 0.0 mm
22:05 14.6 °C 11.7 °C 1017.8 hPa WSW 3.7 km/h 3.7 km/h 83 % 0.0 mm
22:10 14.6 °C 11.7 °C 1018.8 hPa SW 3.7 km/h 3.7 km/h 83 % 0.0 mm
22:15 14.5 °C 11.7 °C 1018.8 hPa SW 1.9 km/h 1.9 km/h 83 % 0.0 mm
22:20 14.5 °C 11.7 °C 1018.8 hPa SW 2.6 km/h 2.6 km/h 83 % 0.0 mm
22:25 14.5 °C 11.7 °C 1018.8 hPa SW 1.9 km/h 1.9 km/h 83 % 0.0 mm
22:30 14.5 °C 11.7 °C 1018.8 hPa SW 3.7 km/h   83 % 0.0 mm
22:35 14.5 °C 11.7 °C 1018.8 hPa SW 2.3 km/h   83 % 0.0 mm
22:40 14.4 °C 11.4 °C 1018.8 hPa West 3.7 km/h 3.7 km/h 82 % 0.0 mm
22:45 14.4 °C 11.4 °C 1018.8 hPa SW 1.9 km/h 1.9 km/h 82 % 0.0 mm
22:50 14.4 °C 11.4 °C 1018.8 hPa WSW 3.7 km/h 3.7 km/h 82 % 0.0 mm
22:51 14.4 °C 11.4 °C 1018.8 hPa WSW 3.7 km/h 3.7 km/h 82 % 0.0 mm
22:56 14.6 °C 11.6 °C 1017.8 hPa WSW 3.7 km/h 3.7 km/h 82 % 0.0 mm
23:01 14.6 °C 11.6 °C 1017.8 hPa WSW 3.7 km/h   82 % 0.0 mm
23:06 14.6 °C 11.6 °C 1017.8 hPa Calm     82 % 0.0 mm
23:11 14.5 °C 11.4 °C 1017.8 hPa Calm     82 % 0.0 mm
23:16 14.4 °C 11.4 °C 1017.8 hPa Calm     82 % 0.0 mm
23:21 14.4 °C 11.4 °C 1017.8 hPa Calm     82 % 0.0 mm
23:26 14.3 °C 11.3 °C 1017.8 hPa Calm     82 % 0.0 mm
23:31 14.3 °C 11.3 °C 1017.8 hPa Calm     82 % 0.0 mm
23:36 14.2 °C 11.2 °C 1017.8 hPa Calm     82 % 0.0 mm
23:41 14.2 °C 11.3 °C 1017.8 hPa Calm     83 % 0.0 mm
23:46 14.1 °C 11.3 °C 1017.8 hPa Calm     83 % 0.0 mm
23:51 14.0 °C 11.2 °C 1017.8 hPa North 2.3 km/h   83 % 0.0 mm
23:56 13.9 °C 11.1 °C 1017.8 hPa ENE 2.6 km/h   83 % 0.0 mm
Meteo Sesrovires
Elogis d' Weather Underground - 3.5 mb

Guio original per  Jim McMurry - jmcmurry@mwt.net Adaptat per a la plantilla per  Wim van der Kuil - Leuven-Template.eu

Trobareu la nostra informacio del temps tambe a:

Weather Underground

AWEKAS